sensor_id;sensor_type;location;lat;lon;timestamp;pressure;altitude;pressure_sealevel;temperature;humidity
55550;BME280;41397;49.972;18.944;2024-02-23T00:02:28;99886.36;;;12.99;61.07
55550;BME280;41397;49.972;18.944;2024-02-23T00:05:29;99888.58;;;13.03;61.14
55550;BME280;41397;49.972;18.944;2024-02-23T00:08:30;99885.84;;;13.03;61.17
55550;BME280;41397;49.972;18.944;2024-02-23T00:11:32;99887.58;;;13.04;61.17
55550;BME280;41397;49.972;18.944;2024-02-23T00:14:48;99892.03;;;13.05;61.21
55550;BME280;41397;49.972;18.944;2024-02-23T00:17:51;99880.02;;;13.06;61.18
55550;BME280;41397;49.972;18.944;2024-02-23T00:20:52;99875.23;;;13.08;61.31
55550;BME280;41397;49.972;18.944;2024-02-23T00:23:54;99874.53;;;13.06;61.48
55550;BME280;41397;49.972;18.944;2024-02-23T00:26:56;99873.30;;;13.01;61.44
55550;BME280;41397;49.972;18.944;2024-02-23T00:29:58;99868.48;;;12.95;61.77
55550;BME280;41397;49.972;18.944;2024-02-23T00:32:59;99873.82;;;12.96;61.77
55550;BME280;41397;49.972;18.944;2024-02-23T00:36:00;99878.09;;;12.91;61.91
55550;BME280;41397;49.972;18.944;2024-02-23T00:39:04;99881.49;;;12.93;61.76
55550;BME280;41397;49.972;18.944;2024-02-23T00:42:05;99867.95;;;12.91;61.80
55550;BME280;41397;49.972;18.944;2024-02-23T00:45:07;99870.52;;;12.93;61.92
55550;BME280;41397;49.972;18.944;2024-02-23T00:48:09;99879.45;;;12.95;61.79
55550;BME280;41397;49.972;18.944;2024-02-23T00:51:12;99884.56;;;12.89;61.95
55550;BME280;41397;49.972;18.944;2024-02-23T00:54:13;99890.61;;;12.93;61.97
55550;BME280;41397;49.972;18.944;2024-02-23T00:57:14;99878.94;;;12.91;61.79
55550;BME280;41397;49.972;18.944;2024-02-23T01:00:17;99879.93;;;12.90;61.71
55550;BME280;41397;49.972;18.944;2024-02-23T01:03:19;99892.10;;;12.87;61.76
55550;BME280;41397;49.972;18.944;2024-02-23T01:06:21;99882.68;;;12.90;61.64
55550;BME280;41397;49.972;18.944;2024-02-23T01:09:22;99882.00;;;12.88;61.67
55550;BME280;41397;49.972;18.944;2024-02-23T01:12:24;99878.22;;;12.89;61.58
55550;BME280;41397;49.972;18.944;2024-02-23T01:15:27;99885.42;;;12.90;61.62
55550;BME280;41397;49.972;18.944;2024-02-23T01:18:29;99899.31;;;12.88;61.60
55550;BME280;41397;49.972;18.944;2024-02-23T01:21:30;99901.73;;;12.92;61.73
55550;BME280;41397;49.972;18.944;2024-02-23T01:24:32;99897.95;;;12.93;61.58
55550;BME280;41397;49.972;18.944;2024-02-23T01:27:35;99913.42;;;12.94;61.46
55550;BME280;41397;49.972;18.944;2024-02-23T01:30:38;99916.16;;;12.94;61.44
55550;BME280;41397;49.972;18.944;2024-02-23T01:33:39;99896.40;;;12.90;61.28
55550;BME280;41397;49.972;18.944;2024-02-23T01:36:41;99896.95;;;12.94;61.62
55550;BME280;41397;49.972;18.944;2024-02-23T01:39:43;99900.51;;;12.86;61.28
55550;BME280;41397;49.972;18.944;2024-02-23T01:42:45;99895.88;;;12.86;61.40
55550;BME280;41397;49.972;18.944;2024-02-23T01:45:47;99894.84;;;12.87;61.51
55550;BME280;41397;49.972;18.944;2024-02-23T01:48:48;99888.49;;;12.87;61.39
55550;BME280;41397;49.972;18.944;2024-02-23T01:51:51;99880.45;;;12.85;61.40
55550;BME280;41397;49.972;18.944;2024-02-23T01:54:54;99870.32;;;12.86;61.30
55550;BME280;41397;49.972;18.944;2024-02-23T01:57:56;99868.06;;;12.81;61.20
55550;BME280;41397;49.972;18.944;2024-02-23T02:00:57;99864.98;;;12.84;61.10
55550;BME280;41397;49.972;18.944;2024-02-23T02:03:59;99854.52;;;12.80;61.16
55550;BME280;41397;49.972;18.944;2024-02-23T02:07:01;99863.13;;;12.85;61.26
55550;BME280;41397;49.972;18.944;2024-02-23T02:10:04;99857.94;;;12.82;61.07
55550;BME280;41397;49.972;18.944;2024-02-23T02:13:08;99854.67;;;12.78;61.07
55550;BME280;41397;49.972;18.944;2024-02-23T02:16:09;99871.31;;;12.77;61.26
55550;BME280;41397;49.972;18.944;2024-02-23T02:19:12;99877.32;;;12.80;61.26
55550;BME280;41397;49.972;18.944;2024-02-23T02:22:14;99880.06;;;12.80;61.09
55550;BME280;41397;49.972;18.944;2024-02-23T02:25:15;99880.06;;;12.80;61.05
55550;BME280;41397;49.972;18.944;2024-02-23T02:28:19;99867.20;;;12.81;61.14
55550;BME280;41397;49.972;18.944;2024-02-23T02:31:20;99875.11;;;12.84;61.24
55550;BME280;41397;49.972;18.944;2024-02-23T02:34:22;99874.10;;;12.85;60.69
55550;BME280;41397;49.972;18.944;2024-02-23T02:37:23;99875.80;;;12.86;61.02
55550;BME280;41397;49.972;18.944;2024-02-23T02:40:25;99868.11;;;12.89;60.88
55550;BME280;41397;49.972;18.944;2024-02-23T02:43:26;99864.66;;;12.87;60.78
55550;BME280;41397;49.972;18.944;2024-02-23T02:46:28;99864.66;;;12.87;60.69
55550;BME280;41397;49.972;18.944;2024-02-23T02:49:29;99872.36;;;12.84;60.65
55550;BME280;41397;49.972;18.944;2024-02-23T02:52:31;99879.89;;;12.82;60.65
55550;BME280;41397;49.972;18.944;2024-02-23T02:55:33;99871.13;;;12.78;60.74
55550;BME280;41397;49.972;18.944;2024-02-23T02:58:34;99866.87;;;12.84;60.74
55550;BME280;41397;49.972;18.944;2024-02-23T03:01:36;99867.58;;;12.86;60.75
55550;BME280;41397;49.972;18.944;2024-02-23T03:04:39;99876.89;;;12.93;60.97
55550;BME280;41397;49.972;18.944;2024-02-23T03:07:40;99877.56;;;12.95;61.28
55550;BME280;41397;49.972;18.944;2024-02-23T03:10:41;99878.27;;;12.97;61.58
55550;BME280;41397;49.972;18.944;2024-02-23T03:13:43;99889.95;;;12.99;61.69
55550;BME280;41397;49.972;18.944;2024-02-23T03:16:46;99893.18;;;12.95;62.17
55550;BME280;41397;49.972;18.944;2024-02-23T03:19:50;99894.73;;;12.97;62.12
55550;BME280;41397;49.972;18.944;2024-02-23T03:22:51;99908.61;;;12.96;62.66
55550;BME280;41397;49.972;18.944;2024-02-23T03:25:52;99911.34;;;12.96;62.78
55550;BME280;41397;49.972;18.944;2024-02-23T03:28:54;99920.95;;;12.92;63.34
55550;BME280;41397;49.972;18.944;2024-02-23T03:31:56;99922.13;;;12.89;63.71
55550;BME280;41397;49.972;18.944;2024-02-23T03:34:57;99926.05;;;12.86;63.76
55550;BME280;41397;49.972;18.944;2024-02-23T03:37:59;99933.76;;;12.83;63.79
55550;BME280;41397;49.972;18.944;2024-02-23T03:41:03;99940.09;;;12.83;63.74
55550;BME280;41397;49.972;18.944;2024-02-23T03:44:04;99938.74;;;12.87;63.76
55550;BME280;41397;49.972;18.944;2024-02-23T03:47:06;99930.51;;;12.87;63.72
55550;BME280;41397;49.972;18.944;2024-02-23T03:50:07;99934.81;;;12.90;63.48
55550;BME280;41397;49.972;18.944;2024-02-23T03:53:10;99939.63;;;12.88;63.55
55550;BME280;41397;49.972;18.944;2024-02-23T03:56:12;99941.34;;;12.89;63.26
55550;BME280;41397;49.972;18.944;2024-02-23T03:59:13;99944.55;;;12.84;63.32
55550;BME280;41397;49.972;18.944;2024-02-23T04:02:15;99943.88;;;12.82;63.22
55550;BME280;41397;49.972;18.944;2024-02-23T04:05:18;99944.88;;;12.81;63.18
55550;BME280;41397;49.972;18.944;2024-02-23T04:08:20;99947.80;;;12.80;63.37
55550;BME280;41397;49.972;18.944;2024-02-23T04:11:21;99946.25;;;12.77;63.47
55550;BME280;41397;49.972;18.944;2024-02-23T04:14:23;99932.34;;;12.79;63.65
55550;BME280;41397;49.972;18.944;2024-02-23T04:17:26;99952.58;;;12.78;63.73
55550;BME280;41397;49.972;18.944;2024-02-23T04:20:27;99958.77;;;12.80;63.78
55550;BME280;41397;49.972;18.944;2024-02-23T04:23:30;99959.63;;;12.80;63.76
55550;BME280;41397;49.972;18.944;2024-02-23T04:26:31;99956.18;;;12.78;63.84
55550;BME280;41397;49.972;18.944;2024-02-23T04:29:34;99959.95;;;12.77;63.96
55550;BME280;41397;49.972;18.944;2024-02-23T04:32:35;99963.38;;;12.79;64.00
55550;BME280;41397;49.972;18.944;2024-02-23T04:35:37;99963.23;;;12.81;64.06
55550;BME280;41397;49.972;18.944;2024-02-23T04:38:38;99958.60;;;12.81;64.08
55550;BME280;41397;49.972;18.944;2024-02-23T04:41:42;99962.52;;;12.79;64.03
55550;BME280;41397;49.972;18.944;2024-02-23T04:44:43;99966.30;;;12.78;64.41
55550;BME280;41397;49.972;18.944;2024-02-23T04:47:45;99974.34;;;12.79;64.33
55550;BME280;41397;49.972;18.944;2024-02-23T04:50:49;99980.72;;;12.80;64.30
55550;BME280;41397;49.972;18.944;2024-02-23T04:53:50;99990.81;;;12.79;64.47
55550;BME280;41397;49.972;18.944;2024-02-23T04:56:51;99982.43;;;12.81;64.57
55550;BME280;41397;49.972;18.944;2024-02-23T04:59:53;99988.06;;;12.79;64.56
55550;BME280;41397;49.972;18.944;2024-02-23T05:02:55;99990.81;;;12.79;64.64
55550;BME280;41397;49.972;18.944;2024-02-23T05:05:58;99991.31;;;12.75;64.72
55550;BME280;41397;49.972;18.944;2024-02-23T05:08:59;99990.99;;;12.78;64.82
55550;BME280;41397;49.972;18.944;2024-02-23T05:12:00;99992.88;;;12.77;65.11
55550;BME280;41397;49.972;18.944;2024-02-23T05:15:02;99996.47;;;12.78;65.36
55550;BME280;41397;49.972;18.944;2024-02-23T05:18:06;100001.96;;;12.78;65.49
55550;BME280;41397;49.972;18.944;2024-02-23T05:21:07;99996.47;;;12.78;65.35
55550;BME280;41397;49.972;18.944;2024-02-23T05:24:11;99994.77;;;12.77;65.29
55550;BME280;41397;49.972;18.944;2024-02-23T05:27:12;100005.89;;;12.75;65.29
55550;BME280;41397;49.972;18.944;2024-02-23T05:30:14;100013.09;;;12.76;65.39
55550;BME280;41397;49.972;18.944;2024-02-23T05:33:15;100024.95;;;12.77;65.69
55550;BME280;41397;49.972;18.944;2024-02-23T05:36:16;100013.97;;;12.77;65.37
55550;BME280;41397;49.972;18.944;2024-02-23T05:39:19;100020.31;;;12.77;65.49
55550;BME280;41397;49.972;18.944;2024-02-23T05:42:21;100024.95;;;12.77;65.80
55550;BME280;41397;49.972;18.944;2024-02-23T05:45:23;100018.75;;;12.75;66.05
55550;BME280;41397;49.972;18.944;2024-02-23T05:48:24;100026.80;;;12.76;65.98
55550;BME280;41397;49.972;18.944;2024-02-23T05:51:25;100031.60;;;12.74;66.14
55550;BME280;41397;49.972;18.944;2024-02-23T05:54:29;100037.09;;;12.74;66.28
55550;BME280;41397;49.972;18.944;2024-02-23T05:57:31;100041.55;;;12.75;66.42
55550;BME280;41397;49.972;18.944;2024-02-23T06:00:32;100041.01;;;12.72;66.78
55550;BME280;41397;49.972;18.944;2024-02-23T06:03:34;100051.98;;;12.72;66.69
55550;BME280;41397;49.972;18.944;2024-02-23T06:06:41;100063.10;;;12.70;67.22
55550;BME280;41397;49.972;18.944;2024-02-23T06:09:44;100063.27;;;12.69;66.88
55550;BME280;41397;49.972;18.944;2024-02-23T06:12:45;100062.07;;;12.71;67.41
55550;BME280;41397;49.972;18.944;2024-02-23T06:15:46;100070.30;;;12.71;67.38
55550;BME280;41397;49.972;18.944;2024-02-23T06:18:47;100074.93;;;12.71;67.52
55550;BME280;41397;49.972;18.944;2024-02-23T06:21:50;100082.16;;;12.72;67.78
55550;BME280;41397;49.972;18.944;2024-02-23T06:24:51;100085.90;;;12.71;68.10
55550;BME280;41397;49.972;18.944;2024-02-23T06:27:52;100096.73;;;12.72;68.30
55550;BME280;41397;49.972;18.944;2024-02-23T06:30:53;100092.43;;;12.70;68.50
55550;BME280;41397;49.972;18.944;2024-02-23T06:33:54;100094.99;;;12.71;68.53
55550;BME280;41397;49.972;18.944;2024-02-23T06:36:55;100104.96;;;12.72;68.75
55550;BME280;41397;49.972;18.944;2024-02-23T06:39:56;100121.56;;;12.71;68.73
55550;BME280;41397;49.972;18.944;2024-02-23T06:43:01;100128.80;;;12.72;69.24
55550;BME280;41397;49.972;18.944;2024-02-23T06:46:09;100137.71;;;12.74;69.67
55550;BME280;41397;49.972;18.944;2024-02-23T06:49:10;100141.17;;;12.76;69.49
55550;BME280;41397;49.972;18.944;2024-02-23T06:52:12;100149.41;;;12.76;69.80
55550;BME280;41397;49.972;18.944;2024-02-23T06:55:13;100153.00;;;12.76;70.22
55550;BME280;41397;49.972;18.944;2024-02-23T06:58:14;100156.64;;;12.77;70.91
55550;BME280;41397;49.972;18.944;2024-02-23T07:01:20;100167.76;;;12.75;70.71
55550;BME280;41397;49.972;18.944;2024-02-23T07:04:21;100172.52;;;12.73;71.05
55550;BME280;41397;49.972;18.944;2024-02-23T07:07:22;100175.43;;;12.72;71.21
55550;BME280;41397;49.972;18.944;2024-02-23T07:10:24;100173.70;;;12.71;71.49
55550;BME280;41397;49.972;18.944;2024-02-23T07:13:26;100179.18;;;12.71;71.57
55550;BME280;41397;49.972;18.944;2024-02-23T07:16:27;100192.76;;;12.72;71.46
55550;BME280;41397;49.972;18.944;2024-02-23T07:19:28;100201.30;;;12.69;71.64
55550;BME280;41397;49.972;18.944;2024-02-23T07:22:30;100208.82;;;12.67;71.82
55550;BME280;41397;49.972;18.944;2024-02-23T07:25:32;100208.58;;;12.60;72.63
55550;BME280;41397;49.972;18.944;2024-02-23T07:28:33;100213.02;;;12.61;72.50
55550;BME280;41397;49.972;18.944;2024-02-23T07:31:34;100204.95;;;12.60;72.98
55550;BME280;41397;49.972;18.944;2024-02-23T07:34:35;100206.10;;;12.57;73.52
55550;BME280;41397;49.972;18.944;2024-02-23T07:37:37;100202.68;;;12.55;73.71
55550;BME280;41397;49.972;18.944;2024-02-23T07:40:38;100205.42;;;12.55;73.52
55550;BME280;41397;49.972;18.944;2024-02-23T07:43:41;100216.09;;;12.58;73.47
55550;BME280;41397;49.972;18.944;2024-02-23T07:46:42;100209.26;;;12.62;73.56
55550;BME280;41397;49.972;18.944;2024-02-23T07:49:44;100213.75;;;12.63;73.42
55550;BME280;41397;49.972;18.944;2024-02-23T07:52:45;100206.20;;;12.65;73.85
55550;BME280;41397;49.972;18.944;2024-02-23T07:55:49;100208.09;;;12.65;73.66
55550;BME280;41397;49.972;18.944;2024-02-23T07:58:50;100215.16;;;12.68;73.35
55550;BME280;41397;49.972;18.944;2024-02-23T08:01:52;100215.02;;;12.69;73.59
55550;BME280;41397;49.972;18.944;2024-02-23T08:04:53;100222.23;;;12.70;73.45
55550;BME280;41397;49.972;18.944;2024-02-23T08:07:57;100210.53;;;12.68;73.54
55550;BME280;41397;49.972;18.944;2024-02-23T08:10:58;100206.48;;;12.72;73.49
55550;BME280;41397;49.972;18.944;2024-02-23T08:13:59;100205.63;;;12.72;73.79
55550;BME280;41397;49.972;18.944;2024-02-23T08:17:00;100211.79;;;12.74;73.38
55550;BME280;41397;49.972;18.944;2024-02-23T08:20:05;100221.05;;;12.73;73.54
55550;BME280;41397;49.972;18.944;2024-02-23T08:23:07;100211.65;;;12.75;73.57
55550;BME280;41397;49.972;18.944;2024-02-23T08:26:10;100217.68;;;12.79;73.38
55550;BME280;41397;49.972;18.944;2024-02-23T08:29:11;100227.66;;;12.80;73.45
55550;BME280;41397;49.972;18.944;2024-02-23T08:32:12;100219.44;;;12.80;73.46
55550;BME280;41397;49.972;18.944;2024-02-23T08:35:14;100241.92;;;12.83;73.13
55550;BME280;41397;49.972;18.944;2024-02-23T08:38:16;100238.32;;;12.83;73.16
55550;BME280;41397;49.972;18.944;2024-02-23T08:41:17;100239.05;;;12.85;73.31
55550;BME280;41397;49.972;18.944;2024-02-23T08:44:20;100245.54;;;12.84;73.16
55550;BME280;41397;49.972;18.944;2024-02-23T08:47:21;100256.36;;;12.85;73.19
55550;BME280;41397;49.972;18.944;2024-02-23T08:50:22;100253.62;;;12.85;73.24
55550;BME280;41397;49.972;18.944;2024-02-23T08:53:23;100258.08;;;12.86;73.15
55550;BME280;41397;49.972;18.944;2024-02-23T08:56:28;100257.94;;;12.88;73.08
55550;BME280;41397;49.972;18.944;2024-02-23T08:59:29;100261.23;;;12.92;72.88
55550;BME280;41397;49.972;18.944;2024-02-23T09:02:30;100265.55;;;12.94;72.96
55550;BME280;41397;49.972;18.944;2024-02-23T09:05:35;100264.83;;;12.92;73.16
55550;BME280;41397;49.972;18.944;2024-02-23T09:08:36;100266.87;;;12.90;73.23
55550;BME280;41397;49.972;18.944;2024-02-23T09:11:37;100274.09;;;12.91;73.15
55550;BME280;41397;49.972;18.944;2024-02-23T09:14:38;100268.74;;;12.89;73.08
55550;BME280;41397;49.972;18.944;2024-02-23T09:17:42;100278.87;;;12.89;72.86
55550;BME280;41397;49.972;18.944;2024-02-23T09:20:44;100287.82;;;12.91;73.02
55550;BME280;41397;49.972;18.944;2024-02-23T09:23:45;100280.13;;;12.95;72.70
55550;BME280;41397;49.972;18.944;2024-02-23T09:26:47;100292.82;;;12.96;72.63
55550;BME280;41397;49.972;18.944;2024-02-23T09:29:48;100304.52;;;12.98;72.63
55550;BME280;41397;49.972;18.944;2024-02-23T09:32:52;100299.04;;;12.98;72.69
55550;BME280;41397;49.972;18.944;2024-02-23T09:35:54;100305.25;;;13.00;72.36
55550;BME280;41397;49.972;18.944;2024-02-23T09:38:55;100318.66;;;13.03;72.34
55550;BME280;41397;49.972;18.944;2024-02-23T09:41:56;100318.66;;;13.03;72.04
55550;BME280;41397;49.972;18.944;2024-02-23T09:45:00;100317.62;;;13.04;71.93
55550;BME280;41397;49.972;18.944;2024-02-23T09:48:03;100314.02;;;13.03;71.82
55550;BME280;41397;49.972;18.944;2024-02-23T09:51:05;100321.40;;;13.03;71.77
55550;BME280;41397;49.972;18.944;2024-02-23T09:54:07;100329.50;;;13.04;71.64
55550;BME280;41397;49.972;18.944;2024-02-23T09:57:09;100334.82;;;13.06;71.39
55550;BME280;41397;49.972;18.944;2024-02-23T10:00:11;100333.10;;;13.05;71.26
55550;BME280;41397;49.972;18.944;2024-02-23T10:03:13;100334.82;;;13.06;70.95
55550;BME280;41397;49.972;18.944;2024-02-23T10:06:14;100336.40;;;13.08;71.09
55550;BME280;41397;49.972;18.944;2024-02-23T10:09:16;100327.30;;;13.08;71.35
55550;BME280;41397;49.972;18.944;2024-02-23T10:12:17;100322.36;;;13.11;71.12
55550;BME280;41397;49.972;18.944;2024-02-23T10:15:18;100317.27;;;13.17;70.83
55550;BME280;41397;49.972;18.944;2024-02-23T10:18:20;100309.75;;;13.19;70.84
55550;BME280;41397;49.972;18.944;2024-02-23T10:21:24;100324.02;;;13.22;70.94
55550;BME280;41397;49.972;18.944;2024-02-23T10:24:26;100320.97;;;13.25;70.66
55550;BME280;41397;49.972;18.944;2024-02-23T10:27:27;100323.61;;;13.27;70.37
55550;BME280;41397;49.972;18.944;2024-02-23T10:30:28;100327.75;;;13.31;70.09
55550;BME280;41397;49.972;18.944;2024-02-23T10:33:32;100333.25;;;13.31;70.17
55550;BME280;41397;49.972;18.944;2024-02-23T10:36:34;100329.81;;;13.29;70.42
55550;BME280;41397;49.972;18.944;2024-02-23T10:39:38;100327.75;;;13.31;70.02
55550;BME280;41397;49.972;18.944;2024-02-23T10:42:43;100326.90;;;13.30;70.04
55550;BME280;41397;49.972;18.944;2024-02-23T10:45:51;100332.26;;;13.32;69.73
55550;BME280;41397;49.972;18.944;2024-02-23T10:48:59;100337.57;;;13.33;69.71
55550;BME280;41397;49.972;18.944;2024-02-23T10:52:03;100349.58;;;13.32;69.40
55550;BME280;41397;49.972;18.944;2024-02-23T10:55:10;100350.45;;;13.33;69.04
55550;BME280;41397;49.972;18.944;2024-02-23T10:58:11;100352.20;;;13.34;69.04
55550;BME280;41397;49.972;18.944;2024-02-23T11:01:18;100348.73;;;13.32;69.28
55550;BME280;41397;49.972;18.944;2024-02-23T11:04:26;100347.56;;;13.35;69.16
55550;BME280;41397;49.972;18.944;2024-02-23T11:07:29;100337.43;;;13.35;69.32
55550;BME280;41397;49.972;18.944;2024-02-23T11:10:31;100343.78;;;13.36;69.40
55550;BME280;41397;49.972;18.944;2024-02-23T11:13:35;100345.80;;;13.33;69.09
55550;BME280;41397;49.972;18.944;2024-02-23T11:16:40;100343.95;;;13.34;69.03
55550;BME280;41397;49.972;18.944;2024-02-23T11:19:46;100346.39;;;13.37;69.16
55550;BME280;41397;49.972;18.944;2024-02-23T11:22:51;100354.31;;;13.40;69.49
55550;BME280;41397;49.972;18.944;2024-02-23T11:26:04;100356.20;;;13.40;69.43
55550;BME280;41397;49.972;18.944;2024-02-23T11:29:12;100347.64;;;13.43;69.61
55550;BME280;41397;49.972;18.944;2024-02-23T11:32:16;100349.38;;;13.44;69.30
55550;BME280;41397;49.972;18.944;2024-02-23T11:35:25;100345.59;;;13.45;70.00
55550;BME280;41397;49.972;18.944;2024-02-23T11:38:27;100364.36;;;13.49;70.06
55550;BME280;41397;49.972;18.944;2024-02-23T11:41:29;100368.86;;;13.50;70.36
55550;BME280;41397;49.972;18.944;2024-02-23T11:44:30;100374.18;;;13.52;70.25
55550;BME280;41397;49.972;18.944;2024-02-23T11:47:31;100377.10;;;13.50;70.30
55550;BME280;41397;49.972;18.944;2024-02-23T11:50:32;100371.61;;;13.50;69.91
55550;BME280;41397;49.972;18.944;2024-02-23T11:53:33;100378.64;;;13.53;70.46
55550;BME280;41397;49.972;18.944;2024-02-23T11:56:35;100387.77;;;13.53;70.24
55550;BME280;41397;49.972;18.944;2024-02-23T11:59:40;100392.55;;;13.51;70.41
55550;BME280;41397;49.972;18.944;2024-02-23T12:02:44;100401.52;;;13.53;70.20
55550;BME280;41397;49.972;18.944;2024-02-23T12:05:50;100407.32;;;13.50;70.25
55550;BME280;41397;49.972;18.944;2024-02-23T12:08:52;100406.60;;;13.48;70.09
55550;BME280;41397;49.972;18.944;2024-02-23T12:11:53;100393.86;;;13.47;70.35
55550;BME280;41397;49.972;18.944;2024-02-23T12:14:55;100385.78;;;13.46;70.21
55550;BME280;41397;49.972;18.944;2024-02-23T12:17:58;100373.05;;;13.45;70.69
55550;BME280;41397;49.972;18.944;2024-02-23T12:21:01;100371.20;;;13.45;70.33
55550;BME280;41397;49.972;18.944;2024-02-23T12:24:06;100375.66;;;13.46;70.69
55550;BME280;41397;49.972;18.944;2024-02-23T12:27:16;100382.19;;;13.45;70.73
55550;BME280;41397;49.972;18.944;2024-02-23T12:30:19;100382.88;;;13.47;70.75
55550;BME280;41397;49.972;18.944;2024-02-23T12:33:20;100382.88;;;13.47;70.79
55550;BME280;41397;49.972;18.944;2024-02-23T12:36:22;100387.37;;;13.48;70.75
55550;BME280;41397;49.972;18.944;2024-02-23T12:39:23;100386.65;;;13.46;70.90
55550;BME280;41397;49.972;18.944;2024-02-23T12:45:08;100397.32;;;13.49;70.45
55550;BME280;41397;49.972;18.944;2024-02-23T12:48:09;100392.55;;;13.51;70.52
55550;BME280;41397;49.972;18.944;2024-02-23T12:51:10;100400.94;;;13.50;70.30
55550;BME280;41397;49.972;18.944;2024-02-23T12:54:16;100402.99;;;13.48;69.97
55550;BME280;41397;49.972;18.944;2024-02-23T12:57:19;100400.79;;;13.51;69.88
55550;BME280;41397;49.972;18.944;2024-02-23T13:00:20;100394.89;;;13.46;70.04
55550;BME280;41397;49.972;18.944;2024-02-23T13:03:21;100407.15;;;13.52;69.89
55550;BME280;41397;49.972;18.944;2024-02-23T13:06:24;100392.55;;;13.51;69.85
55550;BME280;41397;49.972;18.944;2024-02-23T13:09:25;100389.63;;;13.53;69.56
55550;BME280;41397;49.972;18.944;2024-02-23T13:12:26;100391.52;;;13.52;69.16
55550;BME280;41397;49.972;18.944;2024-02-23T13:15:30;100387.91;;;13.52;69.01
55550;BME280;41397;49.972;18.944;2024-02-23T13:18:32;100394.27;;;13.52;68.95
55550;BME280;41397;49.972;18.944;2024-02-23T13:22:02;100402.19;;;13.55;69.00
55550;BME280;41397;49.972;18.944;2024-02-23T13:25:00;100403.22;;;13.54;68.70
55550;BME280;41397;49.972;18.944;2024-02-23T13:28:01;100405.97;;;13.54;68.36
55550;BME280;41397;49.972;18.944;2024-02-23T13:31:03;100411.47;;;13.54;68.25
55550;BME280;41397;49.972;18.944;2024-02-23T13:34:04;100415.93;;;13.55;68.33
55550;BME280;41397;49.972;18.944;2024-02-23T13:37:05;100413.35;;;13.54;68.36
55550;BME280;41397;49.972;18.944;2024-02-23T13:40:08;100427.09;;;13.54;68.56
55550;BME280;41397;49.972;18.944;2024-02-23T13:43:09;100435.34;;;13.54;68.58
55550;BME280;41397;49.972;18.944;2024-02-23T13:46:10;100439.08;;;13.53;68.53
55550;BME280;41397;49.972;18.944;2024-02-23T13:49:11;100428.40;;;13.50;68.44
55550;BME280;41397;49.972;18.944;2024-02-23T13:52:15;100444.02;;;13.49;68.44
55550;BME280;41397;49.972;18.944;2024-02-23T13:55:16;100445.06;;;13.48;68.72
55550;BME280;41397;49.972;18.944;2024-02-23T13:58:17;100434.06;;;13.48;68.98
55550;BME280;41397;49.972;18.944;2024-02-23T14:01:18;100426.13;;;13.45;68.76
55550;BME280;41397;49.972;18.944;2024-02-23T14:04:19;100434.20;;;13.47;69.02
55550;BME280;41397;49.972;18.944;2024-02-23T14:07:20;100429.02;;;13.44;69.00
55550;BME280;41397;49.972;18.944;2024-02-23T14:10:22;100438.98;;;13.45;68.75
55550;BME280;41397;49.972;18.944;2024-02-23T14:13:23;100433.66;;;13.43;69.15
55550;BME280;41397;49.972;18.944;2024-02-23T14:16:24;100445.81;;;13.41;69.44
55550;BME280;41397;49.972;18.944;2024-02-23T14:19:27;100444.23;;;13.38;69.83
55550;BME280;41397;49.972;18.944;2024-02-23T14:22:29;100439.46;;;13.40;69.70
55550;BME280;41397;49.972;18.944;2024-02-23T14:25:33;100444.95;;;13.40;70.11
55550;BME280;41397;49.972;18.944;2024-02-23T14:28:34;100443.92;;;13.41;70.15
55550;BME280;41397;49.972;18.944;2024-02-23T14:31:35;100444.09;;;13.40;69.95
55550;BME280;41397;49.972;18.944;2024-02-23T14:34:36;100424.70;;;13.41;69.82
55550;BME280;41397;49.972;18.944;2024-02-23T14:37:38;100427.62;;;13.40;69.70
55550;BME280;41397;49.972;18.944;2024-02-23T14:40:39;100428.92;;;13.36;70.08
55550;BME280;41397;49.972;18.944;2024-02-23T14:43:43;100435.89;;;13.30;70.23
55550;BME280;41397;49.972;18.944;2024-02-23T14:46:44;100439.80;;;13.27;70.41
55550;BME280;41397;49.972;18.944;2024-02-23T14:49:45;100436.61;;;13.22;70.50
55550;BME280;41397;49.972;18.944;2024-02-23T14:52:46;100447.17;;;13.17;70.67
55550;BME280;41397;49.972;18.944;2024-02-23T14:55:51;100444.90;;;13.13;70.83
55550;BME280;41397;49.972;18.944;2024-02-23T14:58:53;100437.52;;;13.13;70.38
55550;BME280;41397;49.972;18.944;2024-02-23T15:01:54;100434.23;;;13.09;70.99
55550;BME280;41397;49.972;18.944;2024-02-23T15:04:55;100438.83;;;13.09;70.99
55550;BME280;41397;49.972;18.944;2024-02-23T15:07:59;100435.66;;;13.04;71.10
55550;BME280;41397;49.972;18.944;2024-02-23T15:11:00;100432.05;;;13.03;71.08
55550;BME280;41397;49.972;18.944;2024-02-23T15:14:01;100428.62;;;13.01;71.06
55550;BME280;41397;49.972;18.944;2024-02-23T15:17:03;100427.04;;;12.99;71.33
55550;BME280;41397;49.972;18.944;2024-02-23T15:20:08;100416.34;;;12.96;71.30
55550;BME280;41397;49.972;18.944;2024-02-23T15:23:09;100427.62;;;12.93;71.64
55550;BME280;41397;49.972;18.944;2024-02-23T15:26:11;100433.88;;;12.85;71.84
55550;BME280;41397;49.972;18.944;2024-02-23T15:29:12;100439.50;;;12.83;71.94
55550;BME280;41397;49.972;18.944;2024-02-23T15:32:15;100442.38;;;12.82;72.05
55550;BME280;41397;49.972;18.944;2024-02-23T15:35:17;100434.01;;;12.83;71.82
55550;BME280;41397;49.972;18.944;2024-02-23T15:38:18;100436.75;;;12.83;72.26
55550;BME280;41397;49.972;18.944;2024-02-23T15:41:19;100440.53;;;12.82;72.39
55550;BME280;41397;49.972;18.944;2024-02-23T15:44:23;100443.71;;;12.78;72.04
55550;BME280;41397;49.972;18.944;2024-02-23T15:47:24;100434.31;;;12.80;72.34